Ayr Dpi Research Station, Queensland

1:22 PM EST on August 01, 2014 (GMT +1000)
Home Hill (IQUEENSL436) Elev 56 ft | 19.66 °S, 147.42 °E | Change Station

Current weather conditions updated 5 seconds ago

Partly Cloudy
Partly Cloudy
82.0 °F
Feels Like 84 °F
N
4.5
Wind Variable Wind from NW
Gusts 8.3 mph

Today is forecast to be Warmer than yesterday.

Today
High -- | Low -- °F
--% Chance of Precip.
Yesterday
High -- | Low -- °F
Precip. -- in
6:39 AM 5:53 PM
Waxing Crescent, 23% visible
Pressure 30.01 in
Visibility 6.2 miles
Clouds Few 2000 ft
Heat Index 84 °F
Dew Point 65 °F
Humidity 56%
Rainfall 0.00 in
Snow Depth Not available.
UV 7 out of 12
Pollen Not available.
Air Quality Not available.
Flu Activity Not available.
METAR YBTL 010300Z 03009KT 9999 FEW020 26/17 Q1016 RMK FU HZ

More Conditions Fewer Conditions

Pressure 30.01 in
Visibility 6.2 miles
Clouds Few 2000 ft
Heat Index 84 °F
Dew Point 65 °F
Humidity 56%
Rainfall 0.00 in
Snow Depth Not available.
UV 7 out of 12
Pollen Not available.
Air Quality Not available.
Flu Activity Not available.
METAR YBTL 010300Z 03009KT 9999 FEW020 26/17 Q1016 RMK FU HZ

More Conditions Fewer Conditions

10-Day Weather Forecast

Almanac

Astronomy

Aug. 01, 2014 Rise Set
Actual Time 6:39 AM EST 5:53 PM EST
Civil Twilight 6:16 AM EST 6:17 PM EST
Nautical Twilight 5:50 AM EST 6:43 PM EST
Astronomical Twilight 5:24 AM EST 7:09 PM EST
Moon 9:40 AM EST 10:12 PM EST
Length of Visible Light 12h 00m
Length of Day
11h 14m
Tomorrow will be 0m 47s longer.
Waxing Crescent, 23% of the Moon is Illuminated
Jul 31
Waxing Crescent
Aug 3
First Quarter
Aug 10
Full
Aug 17
Last Quarter
Aug 25
New

Yesterday's Extremes

Country Highs Country Lows

Community

WunderPhotos

Upload Photos

1,739,503 photos uploaded!

Nearby

Snow Depth

Not available.

Earthquake Activity

City Distance Mag. Time & Date
No recent earthquake activity has been reported nearby.
Minimum magnitude displayed is 2.5.

Coastal Water Temperatures

Place Temperature
No Stations Reporting

Nearby Weather Stations

Station Location Temp. Heat Index Dew Point Humidity Wind Precip. Elev Updated Type
Home Hill, Home Hill 82.0 °F 84 °F 65 °F 56% NW  at  4.5 mph 0.00 in / hr 56 ft 1:22 PM EST Rapid Fire
HomeHill, Home Hill 83.0 °F 86 °F 67 °F 59% NNW  at  4.0 mph 0.00 in / hr 46 ft 1:16 PM EST Normal

Show More Stations Show Fewer Stations